Terminal Aerodrome Forecast
Issued by NWS Twin Cities, MN

Home | Current Version | Previous Version | Text Only | Print | Product List | Glossary On
Versions: 1 2 3 4 5 6 7 8 9 10 11 12 13 14 15
000
FTUS43 KMPX 232300 RRA
TAFEAU
TAF
KEAU 232343Z 2400/2424 19005KT 2SM -DZ BR OVC003
     FM240200 31009KT 4SM -RA BR OVC006
     FM241000 30013G22KT 3SM -SN BR OVC008
     FM241400 31016G27KT 6SM -SHSN OVC012=

USA.gov is the U.S. government's official web portal to all federal, state and local government web resources and services.